sensor_id;sensor_type;location;lat;lon;timestamp;pressure;altitude;pressure_sealevel;temperature;humidity
50550;BME280;36505;52.512;13.460;2023-05-09T00:02:06;101931.25;;;8.42;60.72
50550;BME280;36505;52.512;13.460;2023-05-09T00:04:32;101926.81;;;8.41;60.68
50550;BME280;36505;52.512;13.460;2023-05-09T00:06:58;101921.56;;;8.40;60.69
50550;BME280;36505;52.512;13.460;2023-05-09T00:09:24;101927.44;;;8.37;60.82
50550;BME280;36505;52.512;13.460;2023-05-09T00:11:49;101931.19;;;8.36;61.17
50550;BME280;36505;52.512;13.460;2023-05-09T00:14:15;101926.59;;;8.36;61.25
50550;BME280;36505;52.512;13.460;2023-05-09T00:16:43;101909.13;;;8.30;61.23
50550;BME280;36505;52.512;13.460;2023-05-09T00:19:08;101920.47;;;8.34;61.53
50550;BME280;36505;52.512;13.460;2023-05-09T00:21:34;101923.97;;;8.28;61.56
50550;BME280;36505;52.512;13.460;2023-05-09T00:23:59;101912.72;;;8.31;61.83
50550;BME280;36505;52.512;13.460;2023-05-09T00:26:25;101918.94;;;8.25;61.65
50550;BME280;36505;52.512;13.460;2023-05-09T00:28:51;101935.38;;;8.31;61.88
50550;BME280;36505;52.512;13.460;2023-05-09T00:31:17;101912.00;;;8.22;61.76
50550;BME280;36505;52.512;13.460;2023-05-09T00:33:42;101925.88;;;8.27;61.72
50550;BME280;36505;52.512;13.460;2023-05-09T00:36:08;101921.25;;;8.28;61.84
50550;BME280;36505;52.512;13.460;2023-05-09T00:38:33;101924.81;;;8.28;61.90
50550;BME280;36505;52.512;13.460;2023-05-09T00:40:58;101921.63;;;8.18;61.71
50550;BME280;36505;52.512;13.460;2023-05-09T00:43:24;101919.94;;;8.17;61.86
50550;BME280;36505;52.512;13.460;2023-05-09T00:45:49;101911.09;;;8.15;61.93
50550;BME280;36505;52.512;13.460;2023-05-09T00:48:15;101921.22;;;8.21;61.75
50550;BME280;36505;52.512;13.460;2023-05-09T00:50:41;101931.47;;;8.19;61.96
50550;BME280;36505;52.512;13.460;2023-05-09T00:53:07;101918.44;;;8.15;62.10
50550;BME280;36505;52.512;13.460;2023-05-09T00:55:33;101925.59;;;8.16;61.82
50550;BME280;36505;52.512;13.460;2023-05-09T00:57:58;101903.91;;;8.08;61.78
50550;BME280;36505;52.512;13.460;2023-05-09T01:00:24;101907.94;;;8.12;61.89
50550;BME280;36505;52.512;13.460;2023-05-09T01:02:52;101900.81;;;8.11;61.49
50550;BME280;36505;52.512;13.460;2023-05-09T01:05:19;101906.69;;;8.14;61.59
50550;BME280;36505;52.512;13.460;2023-05-09T01:07:58;101904.41;;;8.18;61.31
50550;BME280;36505;52.512;13.460;2023-05-09T01:16:06;101900.63;;;8.19;61.14
50550;BME280;36505;52.512;13.460;2023-05-09T01:19:16;101898.31;;;8.16;60.76
50550;BME280;36505;52.512;13.460;2023-05-09T01:21:48;101889.47;;;8.14;60.80
50550;BME280;36505;52.512;13.460;2023-05-09T01:24:43;101888.44;;;8.15;60.28
50550;BME280;36505;52.512;13.460;2023-05-09T01:30:10;101879.38;;;8.08;60.33
50550;BME280;36505;52.512;13.460;2023-05-09T01:32:37;101901.22;;;8.14;59.92
50550;BME280;36505;52.512;13.460;2023-05-09T01:35:04;101888.44;;;8.15;59.58
50550;BME280;36505;52.512;13.460;2023-05-09T01:37:34;101871.41;;;8.13;59.28
50550;BME280;36505;52.512;13.460;2023-05-09T01:40:13;101882.31;;;8.13;59.19
50550;BME280;36505;52.512;13.460;2023-05-09T01:42:56;101882.81;;;8.23;58.89
50550;BME280;36505;52.512;13.460;2023-05-09T01:45:24;101879.88;;;8.18;58.95
50550;BME280;36505;52.512;13.460;2023-05-09T01:47:50;101879.88;;;8.18;58.73
50550;BME280;36505;52.512;13.460;2023-05-09T01:50:18;101875.44;;;8.17;58.79
50550;BME280;36505;52.512;13.460;2023-05-09T01:52:46;101868.06;;;8.11;58.11
50550;BME280;36505;52.512;13.460;2023-05-09T01:55:14;101888.25;;;8.16;58.19
50550;BME280;36505;52.512;13.460;2023-05-09T01:57:42;101883.44;;;8.18;57.68
50550;BME280;36505;52.512;13.460;2023-05-09T02:00:09;101871.44;;;8.19;57.27
50550;BME280;36505;52.512;13.460;2023-05-09T02:02:37;101859.06;;;8.17;56.96
50550;BME280;36505;52.512;13.460;2023-05-09T02:05:03;101884.06;;;8.20;56.98
50550;BME280;36505;52.512;13.460;2023-05-09T02:07:29;101871.47;;;8.26;56.32
50550;BME280;36505;52.512;13.460;2023-05-09T02:09:57;101865.78;;;8.21;55.83
50550;BME280;36505;52.512;13.460;2023-05-09T02:12:24;101886.28;;;8.31;56.09
50550;BME280;36505;52.512;13.460;2023-05-09T02:14:49;101886.88;;;8.33;55.73
50550;BME280;36505;52.512;13.460;2023-05-09T02:17:15;101875.28;;;8.25;55.53
50550;BME280;36505;52.512;13.460;2023-05-09T02:19:42;101873.19;;;8.27;55.33
50550;BME280;36505;52.512;13.460;2023-05-09T02:22:08;101872.13;;;8.28;55.23
50550;BME280;36505;52.512;13.460;2023-05-09T02:24:35;101870.25;;;8.28;54.72
50550;BME280;36505;52.512;13.460;2023-05-09T02:27:05;101881.66;;;8.32;54.88
50550;BME280;36505;52.512;13.460;2023-05-09T02:29:34;101879.34;;;8.36;54.41
50550;BME280;36505;52.512;13.460;2023-05-09T02:32:07;101884.56;;;8.30;54.42
50550;BME280;36505;52.512;13.460;2023-05-09T02:34:35;101883.31;;;8.33;54.38
50550;BME280;36505;52.512;13.460;2023-05-09T02:37:01;101887.34;;;8.37;54.22
50550;BME280;36505;52.512;13.460;2023-05-09T02:39:27;101875.56;;;8.37;54.29
50550;BME280;36505;52.512;13.460;2023-05-09T02:41:53;101889.41;;;8.35;54.26
50550;BME280;36505;52.512;13.460;2023-05-09T02:44:18;101889.22;;;8.37;54.25
50550;BME280;36505;52.512;13.460;2023-05-09T02:46:43;101887.94;;;8.32;54.41
50550;BME280;36505;52.512;13.460;2023-05-09T02:49:09;101892.75;;;8.30;53.94
50550;BME280;36505;52.512;13.460;2023-05-09T02:51:34;101872.31;;;8.26;53.99
50550;BME280;36505;52.512;13.460;2023-05-09T02:54:00;101885.97;;;8.26;54.32
50550;BME280;36505;52.512;13.460;2023-05-09T02:56:25;101873.56;;;8.17;54.33
50550;BME280;36505;52.512;13.460;2023-05-09T02:58:51;101873.13;;;8.20;54.37
50550;BME280;36505;52.512;13.460;2023-05-09T03:01:16;101885.75;;;8.21;54.30
50550;BME280;36505;52.512;13.460;2023-05-09T03:03:45;101884.50;;;8.24;54.57
50550;BME280;36505;52.512;13.460;2023-05-09T03:06:10;101884.06;;;8.20;54.71
50550;BME280;36505;52.512;13.460;2023-05-09T03:08:36;101870.19;;;8.15;54.66
50550;BME280;36505;52.512;13.460;2023-05-09T03:11:01;101876.28;;;8.17;54.64
50550;BME280;36505;52.512;13.460;2023-05-09T03:13:26;101863.00;;;8.08;54.85
50550;BME280;36505;52.512;13.460;2023-05-09T03:15:52;101873.91;;;8.08;54.95
50550;BME280;36505;52.512;13.460;2023-05-09T03:18:17;101870.78;;;8.11;55.03
50550;BME280;36505;52.512;13.460;2023-05-09T03:20:43;101861.75;;;8.10;54.90
50550;BME280;36505;52.512;13.460;2023-05-09T03:23:08;101852.69;;;8.03;54.97
50550;BME280;36505;52.512;13.460;2023-05-09T03:25:34;101860.06;;;8.09;55.04
50550;BME280;36505;52.512;13.460;2023-05-09T03:27:59;101871.59;;;8.05;54.94
50550;BME280;36505;52.512;13.460;2023-05-09T03:30:25;101868.44;;;8.08;54.99
50550;BME280;36505;52.512;13.460;2023-05-09T03:32:51;101859.84;;;8.04;55.09
50550;BME280;36505;52.512;13.460;2023-05-09T03:35:16;101857.13;;;8.04;55.12
50550;BME280;36505;52.512;13.460;2023-05-09T03:37:42;101862.56;;;8.04;55.12
50550;BME280;36505;52.512;13.460;2023-05-09T03:40:07;101860.22;;;8.01;55.19
50550;BME280;36505;52.512;13.460;2023-05-09T03:42:33;101864.00;;;8.00;55.08
50550;BME280;36505;52.512;13.460;2023-05-09T03:44:58;101860.84;;;7.97;55.22
50550;BME280;36505;52.512;13.460;2023-05-09T03:47:24;101858.72;;;7.99;55.12
50550;BME280;36505;52.512;13.460;2023-05-09T03:49:49;101875.56;;;8.02;55.56
50550;BME280;36505;52.512;13.460;2023-05-09T03:52:14;101861.69;;;7.97;55.60
50550;BME280;36505;52.512;13.460;2023-05-09T03:54:40;101862.97;;;8.01;55.81
50550;BME280;36505;52.512;13.460;2023-05-09T03:57:05;101867.19;;;8.04;56.12
50550;BME280;36505;52.512;13.460;2023-05-09T03:59:31;101858.34;;;8.02;56.17
50550;BME280;36505;52.512;13.460;2023-05-09T04:01:56;101857.53;;;8.08;56.24
50550;BME280;36505;52.512;13.460;2023-05-09T04:04:22;101850.78;;;8.31;55.18
50550;BME280;36505;52.512;13.460;2023-05-09T04:06:47;101853.66;;;8.23;55.63
50550;BME280;36505;52.512;13.460;2023-05-09T04:09:13;101863.53;;;8.24;55.83
50550;BME280;36505;52.512;13.460;2023-05-09T04:11:39;101858.81;;;8.46;54.99
50550;BME280;36505;52.512;13.460;2023-05-09T04:14:04;101865.63;;;8.29;55.54
50550;BME280;36505;52.512;13.460;2023-05-09T04:16:31;101856.78;;;8.20;55.99
50550;BME280;36505;52.512;13.460;2023-05-09T04:18:57;101846.66;;;8.14;55.97
50550;BME280;36505;52.512;13.460;2023-05-09T04:21:22;101856.56;;;8.22;55.95
50550;BME280;36505;52.512;13.460;2023-05-09T04:23:48;101854.56;;;8.30;56.04
50550;BME280;36505;52.512;13.460;2023-05-09T04:26:13;101854.16;;;8.40;55.50
50550;BME280;36505;52.512;13.460;2023-05-09T04:28:39;101860.69;;;8.39;55.47
50550;BME280;36505;52.512;13.460;2023-05-09T04:31:05;101849.34;;;8.42;55.64
50550;BME280;36505;52.512;13.460;2023-05-09T04:33:30;101861.53;;;8.46;55.66
50550;BME280;36505;52.512;13.460;2023-05-09T04:35:56;101853.19;;;8.54;55.59
50550;BME280;36505;52.512;13.460;2023-05-09T04:38:22;101851.75;;;8.58;55.33
50550;BME280;36505;52.512;13.460;2023-05-09T04:40:47;101841.47;;;8.67;54.81
50550;BME280;36505;52.512;13.460;2023-05-09T04:43:13;101842.97;;;8.83;54.65
50550;BME280;36505;52.512;13.460;2023-05-09T04:45:38;101864.25;;;8.94;54.43
50550;BME280;36505;52.512;13.460;2023-05-09T04:48:04;101855.25;;;9.26;53.57
50550;BME280;36505;52.512;13.460;2023-05-09T04:50:29;101859.00;;;9.98;51.37
50550;BME280;36505;52.512;13.460;2023-05-09T04:52:55;101858.84;;;11.26;48.18
50550;BME280;36505;52.512;13.460;2023-05-09T04:55:20;101839.31;;;12.34;44.93
50550;BME280;36505;52.512;13.460;2023-05-09T04:57:45;101847.91;;;12.01;44.88
50550;BME280;36505;52.512;13.460;2023-05-09T05:00:12;101844.84;;;10.72;48.17
50550;BME280;36505;52.512;13.460;2023-05-09T05:02:37;101855.06;;;10.96;48.53
50550;BME280;36505;52.512;13.460;2023-05-09T05:05:03;101844.41;;;11.94;45.73
50550;BME280;36505;52.512;13.460;2023-05-09T05:07:29;101840.56;;;12.49;44.25
50550;BME280;36505;52.512;13.460;2023-05-09T05:09:54;101832.59;;;12.78;43.86
50550;BME280;36505;52.512;13.460;2023-05-09T05:12:19;101847.66;;;12.75;43.32
50550;BME280;36505;52.512;13.460;2023-05-09T05:14:45;101828.34;;;12.93;42.71
50550;BME280;36505;52.512;13.460;2023-05-09T05:17:11;101837.88;;;13.62;41.44
50550;BME280;36505;52.512;13.460;2023-05-09T05:19:36;101837.72;;;14.79;38.90
50550;BME280;36505;52.512;13.460;2023-05-09T05:22:01;101837.03;;;15.62;37.34
50550;BME280;36505;52.512;13.460;2023-05-09T05:24:27;101832.00;;;16.74;35.02
50550;BME280;36505;52.512;13.460;2023-05-09T05:26:52;101823.22;;;16.82;34.73
50550;BME280;36505;52.512;13.460;2023-05-09T05:29:18;101820.59;;;17.88;33.17
50550;BME280;36505;52.512;13.460;2023-05-09T05:31:44;101808.41;;;17.52;32.65
50550;BME280;36505;52.512;13.460;2023-05-09T05:34:09;101835.44;;;15.66;35.74
50550;BME280;36505;52.512;13.460;2023-05-09T05:36:35;101828.44;;;16.57;34.79
50550;BME280;36505;52.512;13.460;2023-05-09T05:39:00;101822.13;;;17.37;33.22
50550;BME280;36505;52.512;13.460;2023-05-09T05:41:26;101825.72;;;18.59;31.38
50550;BME280;36505;52.512;13.460;2023-05-09T05:43:51;101818.53;;;18.15;31.54
50550;BME280;36505;52.512;13.460;2023-05-09T05:46:17;101813.69;;;18.43;31.28
50550;BME280;36505;52.512;13.460;2023-05-09T05:48:42;101823.63;;;19.31;30.05
50550;BME280;36505;52.512;13.460;2023-05-09T05:51:07;101800.88;;;19.85;29.28
50550;BME280;36505;52.512;13.460;2023-05-09T05:53:33;101790.41;;;20.52;28.35
50550;BME280;36505;52.512;13.460;2023-05-09T05:55:58;101793.41;;;20.60;27.55
50550;BME280;36505;52.512;13.460;2023-05-09T05:58:23;101804.56;;;20.55;27.81
50550;BME280;36505;52.512;13.460;2023-05-09T06:00:50;101773.22;;;21.27;27.51
50550;BME280;36505;52.512;13.460;2023-05-09T06:03:16;101792.16;;;21.88;26.71
50550;BME280;36505;52.512;13.460;2023-05-09T06:05:45;101767.78;;;21.07;26.63
50550;BME280;36505;52.512;13.460;2023-05-09T06:08:11;101782.44;;;21.23;26.72
50550;BME280;36505;52.512;13.460;2023-05-09T06:10:36;101764.28;;;21.59;26.16
50550;BME280;36505;52.512;13.460;2023-05-09T06:13:02;101774.16;;;21.13;26.58
50550;BME280;36505;52.512;13.460;2023-05-09T06:15:27;101780.53;;;21.18;26.59
50550;BME280;36505;52.512;13.460;2023-05-09T06:17:53;101766.72;;;21.66;26.31
50550;BME280;36505;52.512;13.460;2023-05-09T06:20:18;101760.25;;;21.71;25.94
50550;BME280;36505;52.512;13.460;2023-05-09T06:22:43;101756.97;;;21.40;26.53
50550;BME280;36505;52.512;13.460;2023-05-09T06:25:09;101750.09;;;21.85;26.08
50550;BME280;36505;52.512;13.460;2023-05-09T06:27:34;101755.53;;;21.71;26.48
50550;BME280;36505;52.512;13.460;2023-05-09T06:30:00;101762.06;;;21.61;25.95
50550;BME280;36505;52.512;13.460;2023-05-09T06:32:25;101755.22;;;21.49;26.42
50550;BME280;36505;52.512;13.460;2023-05-09T06:34:51;101758.28;;;22.48;25.22
50550;BME280;36505;52.512;13.460;2023-05-09T06:37:17;101746.53;;;22.27;25.68
50550;BME280;36505;52.512;13.460;2023-05-09T06:39:42;101742.25;;;22.77;24.96
50550;BME280;36505;52.512;13.460;2023-05-09T06:42:07;101758.78;;;21.78;26.22
50550;BME280;36505;52.512;13.460;2023-05-09T06:44:33;101735.50;;;21.40;26.71
50550;BME280;36505;52.512;13.460;2023-05-09T06:46:59;101732.38;;;21.71;26.72
50550;BME280;36505;52.512;13.460;2023-05-09T06:49:25;101735.16;;;21.76;26.46
50550;BME280;36505;52.512;13.460;2023-05-09T06:51:50;101735.56;;;21.35;26.90
50550;BME280;36505;52.512;13.460;2023-05-09T06:54:16;101736.47;;;21.54;26.64
50550;BME280;36505;52.512;13.460;2023-05-09T06:56:41;101730.31;;;20.89;27.46
50550;BME280;36505;52.512;13.460;2023-05-09T06:59:07;101743.00;;;20.67;28.19
50550;BME280;36505;52.512;13.460;2023-05-09T07:01:32;101737.81;;;21.57;26.83
50550;BME280;36505;52.512;13.460;2023-05-09T07:03:57;101729.38;;;21.67;26.37
50550;BME280;36505;52.512;13.460;2023-05-09T07:06:23;101715.41;;;21.09;26.95
50550;BME280;36505;52.512;13.460;2023-05-09T07:08:49;101707.00;;;20.36;28.05
50550;BME280;36505;52.512;13.460;2023-05-09T07:11:14;101718.97;;;20.32;28.01
50550;BME280;36505;52.512;13.460;2023-05-09T07:13:40;101703.41;;;21.14;27.33
50550;BME280;36505;52.512;13.460;2023-05-09T07:16:06;101691.13;;;21.73;26.41
50550;BME280;36505;52.512;13.460;2023-05-09T07:18:31;101715.13;;;22.40;25.58
50550;BME280;36505;52.512;13.460;2023-05-09T07:20:57;101675.50;;;22.19;25.30
50550;BME280;36505;52.512;13.460;2023-05-09T07:23:22;101674.00;;;22.27;25.26
50550;BME280;36505;52.512;13.460;2023-05-09T07:25:47;101692.13;;;21.58;25.68
50550;BME280;36505;52.512;13.460;2023-05-09T07:28:13;101673.84;;;21.47;25.59
50550;BME280;36505;52.512;13.460;2023-05-09T07:30:38;101667.72;;;20.87;26.53
50550;BME280;36505;52.512;13.460;2023-05-09T07:33:04;101687.25;;;20.77;26.80
50550;BME280;36505;52.512;13.460;2023-05-09T07:35:29;101688.09;;;20.77;26.90
50550;BME280;36505;52.512;13.460;2023-05-09T07:37:55;101670.84;;;20.75;25.87
50550;BME280;36505;52.512;13.460;2023-05-09T07:40:20;101663.94;;;20.24;26.79
50550;BME280;36505;52.512;13.460;2023-05-09T07:42:45;101648.25;;;20.82;26.54
50550;BME280;36505;52.512;13.460;2023-05-09T07:45:14;101650.06;;;21.78;25.52
50550;BME280;36505;52.512;13.460;2023-05-09T07:47:40;101642.03;;;22.57;24.31
50550;BME280;36505;52.512;13.460;2023-05-09T07:50:05;101652.56;;;22.97;23.83
50550;BME280;36505;52.512;13.460;2023-05-09T07:52:31;101637.19;;;22.62;23.80
50550;BME280;36505;52.512;13.460;2023-05-09T07:54:56;101621.97;;;22.73;23.54
50550;BME280;36505;52.512;13.460;2023-05-09T07:57:22;101641.75;;;23.23;23.36
50550;BME280;36505;52.512;13.460;2023-05-09T07:59:47;101637.94;;;22.87;23.70
50550;BME280;36505;52.512;13.460;2023-05-09T08:02:12;101631.81;;;23.17;23.43
50550;BME280;36505;52.512;13.460;2023-05-09T08:04:38;101631.78;;;23.03;23.88
50550;BME280;36505;52.512;13.460;2023-05-09T08:07:05;101606.91;;;22.88;23.23
50550;BME280;36505;52.512;13.460;2023-05-09T08:09:31;101609.38;;;22.76;23.53
50550;BME280;36505;52.512;13.460;2023-05-09T08:11:57;101613.41;;;23.30;22.92
50550;BME280;36505;52.512;13.460;2023-05-09T08:14:22;101611.75;;;23.29;22.81
50550;BME280;36505;52.512;13.460;2023-05-09T08:16:48;101610.09;;;23.41;22.79
50550;BME280;36505;52.512;13.460;2023-05-09T08:19:13;101609.00;;;23.70;22.27
50550;BME280;36505;52.512;13.460;2023-05-09T08:21:38;101595.50;;;23.31;22.33
50550;BME280;36505;52.512;13.460;2023-05-09T08:24:04;101583.56;;;24.07;22.64
50550;BME280;36505;52.512;13.460;2023-05-09T08:26:32;101612.78;;;24.73;21.45
50550;BME280;36505;52.512;13.460;2023-05-09T08:28:58;101604.06;;;23.20;22.69
50550;BME280;36505;52.512;13.460;2023-05-09T08:31:24;101585.47;;;23.84;21.25
50550;BME280;36505;52.512;13.460;2023-05-09T08:33:51;101587.72;;;23.96;21.40
50550;BME280;36505;52.512;13.460;2023-05-09T08:36:16;101586.91;;;24.90;20.63
50550;BME280;36505;52.512;13.460;2023-05-09T08:38:42;101586.34;;;24.88;20.29
50550;BME280;36505;52.512;13.460;2023-05-09T08:41:07;101580.41;;;26.08;20.06
50550;BME280;36505;52.512;13.460;2023-05-09T08:43:33;101586.78;;;27.11;18.85
50550;BME280;36505;52.512;13.460;2023-05-09T08:46:03;101586.47;;;25.75;20.00
50550;BME280;36505;52.512;13.460;2023-05-09T08:48:33;101587.03;;;26.63;19.14
50550;BME280;36505;52.512;13.460;2023-05-09T08:50:58;101588.81;;;26.85;18.98
50550;BME280;36505;52.512;13.460;2023-05-09T08:53:25;101588.66;;;25.47;20.72
50550;BME280;36505;52.512;13.460;2023-05-09T08:55:50;101586.69;;;25.08;20.87
50550;BME280;36505;52.512;13.460;2023-05-09T08:58:18;101584.00;;;25.82;20.08
50550;BME280;36505;52.512;13.460;2023-05-09T09:00:44;101583.38;;;25.85;19.77
50550;BME280;36505;52.512;13.460;2023-05-09T09:03:11;101594.13;;;24.91;20.06
50550;BME280;36505;52.512;13.460;2023-05-09T09:05:37;101588.19;;;23.62;21.66
50550;BME280;36505;52.512;13.460;2023-05-09T09:08:03;101592.72;;;23.31;22.24
50550;BME280;36505;52.512;13.460;2023-05-09T09:10:31;101552.47;;;23.59;22.12
50550;BME280;36505;52.512;13.460;2023-05-09T09:12:59;101571.34;;;22.94;22.15
50550;BME280;36505;52.512;13.460;2023-05-09T09:15:27;101573.50;;;22.13;23.48
50550;BME280;36505;52.512;13.460;2023-05-09T09:17:54;101581.78;;;22.18;23.76
50550;BME280;36505;52.512;13.460;2023-05-09T09:20:24;101573.00;;;20.63;25.55
50550;BME280;36505;52.512;13.460;2023-05-09T09:22:54;101584.75;;;19.62;26.29
50550;BME280;36505;52.512;13.460;2023-05-09T09:25:22;101568.63;;;19.59;26.56
50550;BME280;36505;52.512;13.460;2023-05-09T09:27:47;101581.47;;;19.45;26.51
50550;BME280;36505;52.512;13.460;2023-05-09T09:30:16;101559.13;;;18.80;27.61
50550;BME280;36505;52.512;13.460;2023-05-09T09:32:41;101578.81;;;18.53;27.76
50550;BME280;36505;52.512;13.460;2023-05-09T09:35:09;101562.16;;;18.43;28.05
50550;BME280;36505;52.512;13.460;2023-05-09T09:37:38;101547.75;;;18.57;27.57
50550;BME280;36505;52.512;13.460;2023-05-09T09:40:08;101558.84;;;18.57;26.79
50550;BME280;36505;52.512;13.460;2023-05-09T09:42:45;101547.19;;;18.34;28.14
50550;BME280;36505;52.512;13.460;2023-05-09T09:45:12;101544.94;;;18.16;29.33
50550;BME280;36505;52.512;13.460;2023-05-09T09:47:39;101535.53;;;18.17;29.06
50550;BME280;36505;52.512;13.460;2023-05-09T09:50:18;101518.75;;;17.51;30.29
50550;BME280;36505;52.512;13.460;2023-05-09T09:52:53;101538.81;;;17.79;30.52
50550;BME280;36505;52.512;13.460;2023-05-09T09:55:21;101525.78;;;17.84;30.38
50550;BME280;36505;52.512;13.460;2023-05-09T09:57:47;101532.94;;;17.70;29.73
50550;BME280;36505;52.512;13.460;2023-05-09T10:00:14;101540.41;;;17.64;30.38
50550;BME280;36505;52.512;13.460;2023-05-09T10:02:50;101523.16;;;17.47;30.50
50550;BME280;36505;52.512;13.460;2023-05-09T10:05:22;101517.59;;;17.47;30.75
50550;BME280;36505;52.512;13.460;2023-05-09T10:08:02;101518.22;;;17.59;30.16
50550;BME280;36505;52.512;13.460;2023-05-09T10:10:32;101533.25;;;17.84;29.88
50550;BME280;36505;52.512;13.460;2023-05-09T10:13:05;101500.53;;;17.65;29.58
50550;BME280;36505;52.512;13.460;2023-05-09T10:15:32;101498.88;;;17.69;29.92
50550;BME280;36505;52.512;13.460;2023-05-09T10:17:59;101513.16;;;17.41;29.77
50550;BME280;36505;52.512;13.460;2023-05-09T10:20:29;101493.50;;;17.32;29.98
50550;BME280;36505;52.512;13.460;2023-05-09T10:22:56;101505.34;;;17.28;29.98
50550;BME280;36505;52.512;13.460;2023-05-09T10:25:43;101492.88;;;17.20;29.13
50550;BME280;36505;52.512;13.460;2023-05-09T10:28:12;101497.78;;;17.08;29.02
50550;BME280;36505;52.512;13.460;2023-05-09T10:33:30;101494.19;;;17.08;28.68
50550;BME280;36505;52.512;13.460;2023-05-09T10:35:57;101491.69;;;17.06;28.95
50550;BME280;36505;52.512;13.460;2023-05-09T10:38:25;101480.38;;;17.13;29.18
50550;BME280;36505;52.512;13.460;2023-05-09T10:40:52;101475.47;;;17.25;29.32
50550;BME280;36505;52.512;13.460;2023-05-09T10:43:19;101476.59;;;17.34;29.46
50550;BME280;36505;52.512;13.460;2023-05-09T10:45:46;101495.44;;;17.32;29.17
50550;BME280;36505;52.512;13.460;2023-05-09T10:48:13;101464.94;;;17.22;29.25
50550;BME280;36505;52.512;13.460;2023-05-09T10:50:38;101475.22;;;17.36;29.13
50550;BME280;36505;52.512;13.460;2023-05-09T10:53:08;101474.44;;;17.46;29.56
50550;BME280;36505;52.512;13.460;2023-05-09T10:58:28;101464.94;;;17.27;29.65
50550;BME280;36505;52.512;13.460;2023-05-09T11:00:56;101461.81;;;17.03;29.96
50550;BME280;36505;52.512;13.460;2023-05-09T11:03:22;101457.13;;;17.04;30.00
50550;BME280;36505;52.512;13.460;2023-05-09T11:05:51;101434.91;;;16.88;30.13
50550;BME280;36505;52.512;13.460;2023-05-09T11:08:27;101441.84;;;16.96;29.71
50550;BME280;36505;52.512;13.460;2023-05-09T11:10:57;101440.19;;;17.00;29.71
50550;BME280;36505;52.512;13.460;2023-05-09T11:13:29;101429.13;;;17.00;29.81
50550;BME280;36505;52.512;13.460;2023-05-09T11:18:23;101433.31;;;17.03;30.75
50550;BME280;36505;52.512;13.460;2023-05-09T11:20:49;101417.81;;;17.02;30.93
50550;BME280;36505;52.512;13.460;2023-05-09T11:23:17;101419.47;;;17.03;31.16
50550;BME280;36505;52.512;13.460;2023-05-09T11:25:47;101414.53;;;17.10;31.37
50550;BME280;36505;52.512;13.460;2023-05-09T11:31:15;101421.06;;;16.88;29.24
50550;BME280;36505;52.512;13.460;2023-05-09T11:33:42;101397.50;;;16.71;29.51
50550;BME280;36505;52.512;13.460;2023-05-09T11:36:27;101404.13;;;16.70;30.65
50550;BME280;36505;52.512;13.460;2023-05-09T11:41:28;101400.28;;;16.81;31.06
50550;BME280;36505;52.512;13.460;2023-05-09T11:43:54;101384.00;;;16.84;30.54
50550;BME280;36505;52.512;13.460;2023-05-09T11:46:20;101360.75;;;16.80;30.09
50550;BME280;36505;52.512;13.460;2023-05-09T11:48:47;101375.97;;;16.83;29.77
50550;BME280;36505;52.512;13.460;2023-05-09T11:51:18;101387.03;;;16.83;29.98
50550;BME280;36505;52.512;13.460;2023-05-09T11:53:45;101383.44;;;16.87;30.54
50550;BME280;36505;52.512;13.460;2023-05-09T11:56:14;101342.47;;;16.69;30.65
50550;BME280;36505;52.512;13.460;2023-05-09T11:58:40;101361.25;;;16.67;30.52
50550;BME280;36505;52.512;13.460;2023-05-09T12:01:06;101354.03;;;16.66;30.78
50550;BME280;36505;52.512;13.460;2023-05-09T12:03:31;101350.75;;;16.69;30.92
50550;BME280;36505;52.512;13.460;2023-05-09T12:05:57;101359.06;;;16.74;31.22
50550;BME280;36505;52.512;13.460;2023-05-09T12:08:23;101346.91;;;16.75;30.38
50550;BME280;36505;52.512;13.460;2023-05-09T12:10:49;101361.00;;;16.79;30.29
50550;BME280;36505;52.512;13.460;2023-05-09T12:13:14;101319.97;;;16.50;30.34
50550;BME280;36505;52.512;13.460;2023-05-09T12:15:39;101343.72;;;16.51;30.41
50550;BME280;36505;52.512;13.460;2023-05-09T12:18:06;101327.44;;;16.55;30.50
50550;BME280;36505;52.512;13.460;2023-05-09T12:20:58;101310.91;;;16.65;30.28
50550;BME280;36505;52.512;13.460;2023-05-09T12:23:24;101318.66;;;16.68;30.48
50550;BME280;36505;52.512;13.460;2023-05-09T12:25:53;101311.78;;;16.71;30.60
50550;BME280;36505;52.512;13.460;2023-05-09T12:28:23;101300.19;;;16.84;31.00
50550;BME280;36505;52.512;13.460;2023-05-09T12:30:49;101330.88;;;16.82;30.68
50550;BME280;36505;52.512;13.460;2023-05-09T12:33:16;101296.84;;;16.72;30.84
50550;BME280;36505;52.512;13.460;2023-05-09T12:35:45;101287.16;;;16.74;31.28
50550;BME280;36505;52.512;13.460;2023-05-09T12:38:22;101302.91;;;16.74;30.81
50550;BME280;36505;52.512;13.460;2023-05-09T12:41:09;101284.13;;;16.81;31.19
50550;BME280;36505;52.512;13.460;2023-05-09T12:43:36;101282.19;;;16.76;30.80
50550;BME280;36505;52.512;13.460;2023-05-09T12:46:03;101256.19;;;16.77;30.95
50550;BME280;36505;52.512;13.460;2023-05-09T12:48:29;101288.56;;;16.77;31.20
50550;BME280;36505;52.512;13.460;2023-05-09T12:51:03;101290.47;;;16.71;30.99
50550;BME280;36505;52.512;13.460;2023-05-09T12:53:28;101284.38;;;16.74;31.57
50550;BME280;36505;52.512;13.460;2023-05-09T12:56:03;101272.28;;;16.85;31.10
50550;BME280;36505;52.512;13.460;2023-05-09T12:58:32;101268.94;;;16.93;30.90
50550;BME280;36505;52.512;13.460;2023-05-09T13:01:03;101250.97;;;17.01;30.72
50550;BME280;36505;52.512;13.460;2023-05-09T13:03:29;101280.34;;;17.12;30.26
50550;BME280;36505;52.512;13.460;2023-05-09T13:06:02;101264.25;;;17.14;29.97